Evelyn James — WDI8937 — position and weather

sailwx.info

Track history (hours):
 
Tides and Currents Weather Stations Pressure Air Temp Water Temp Dewpoint Dewpoint Depression Visibility Wind Speed Wind Dir Waves Ship Positions

Evelyn James

Owner: NGL Marine, LLC, Deer Park, TX. More information available from US FCC via Universal Licensing System and Coast Guard Vessel Documentation Center.

Last reported at 2018-Feb-24 10:57 UTC. Time now 2018-Feb-25 17:49 UTC.
Position N 29°46' W 095°06'.

Length 25 m.

Type: Pilot. MMSI: 367743660.

Date/timePositionNaut miles runAvg speedWind from/ knotsBaromVisibWave heightAir tempDewpointWater temp
2018-Feb-24 10:57N 29°46' W 095°06'0 0.0
2018-Feb-24 10:27N 29°46' W 095°06'0 0.0
2018-Feb-24 09:59N 29°46' W 095°06'0 0.0
2018-Feb-24 09:29N 29°46' W 095°06'0 0.0
2018-Feb-24 09:00N 29°46' W 095°06'0 0.0
2018-Feb-24 08:30N 29°46' W 095°06'0 0.0
2018-Feb-24 08:00N 29°46' W 095°06'0 0.0
2018-Feb-24 07:30N 29°46' W 095°06'0 0.0
2018-Feb-24 07:00N 29°46' W 095°06'0 0.0
2018-Feb-24 06:30N 29°46' W 095°06'0 0.0
2018-Feb-24 06:00N 29°46' W 095°06'0 0.0
2018-Feb-24 05:28N 29°46' W 095°06'0 0.0
2018-Feb-24 05:00N 29°46' W 095°06'0 0.0
2018-Feb-24 04:30N 29°46' W 095°06'0 0.0
2018-Feb-24 04:00N 29°46' W 095°06'0 0.0
2018-Feb-24 03:30N 29°46' W 095°06'0 0.0
2018-Feb-24 02:59N 29°46' W 095°06'0 0.0
2018-Feb-24 02:30N 29°46' W 095°06'0 0.0
2018-Feb-24 01:58N 29°46' W 095°06'0 0.0
2018-Feb-24 01:29N 29°46' W 095°06'0 0.0
2018-Feb-24 00:59N 29°46' W 095°06'0 0.0
2018-Feb-24 00:30N 29°46' W 095°06'2 3.1
2018-Feb-23 23:45N 29°47' W 095°04'0 0.0
2018-Feb-23 23:27N 29°47' W 095°04'0 0.0
2018-Feb-23 22:59N 29°47' W 095°04'0 0.1
2018-Feb-23 22:17N 29°47' W 095°04'1 1.7
2018-Feb-23 21:57N 29°47' W 095°04'2 3.2
2018-Feb-23 21:27N 29°45' W 095°04'2 5.4
2018-Feb-23 20:59N 29°44' W 095°02'3 7.0
2018-Feb-23 20:30N 29°41' W 094°59'4 8.5
2018-Feb-23 20:00N 29°37' W 094°57'4 8.4
2018-Feb-23 19:30N 29°34' W 094°55'4 8.8
2018-Feb-23 19:00N 29°30' W 094°52'6 9.6
2018-Feb-23 18:22N 29°24' W 094°49'4 0.8
2018-Feb-23 12:42N 29°25' W 094°44'0 0.0
2018-Feb-23 09:58N 29°25' W 094°44'0 0.1
2018-Feb-23 09:17N 29°25' W 094°44'0 0.0
2018-Feb-23 08:49N 29°25' W 094°44'0 0.0
2018-Feb-23 08:25N 29°25' W 094°44'0 0.0
2018-Feb-23 07:37N 29°25' W 094°44'0 0.0
2018-Feb-23 07:23N 29°25' W 094°44'0 0.0
2018-Feb-23 06:46N 29°25' W 094°44'0 0.0
2018-Feb-23 06:25N 29°25' W 094°44'0 0.0
2018-Feb-23 05:57N 29°25' W 094°44'0 0.0
2018-Feb-23 03:44N 29°25' W 094°44'0 0.0
2018-Feb-23 03:24N 29°25' W 094°44'17 2.0
2018-Feb-22 18:54N 29°34' W 094°28'1 3.6
2018-Feb-22 18:30N 29°34' W 094°26'2 3.3
2018-Feb-22 17:55N 29°35' W 094°25'1 3.5
2018-Feb-22 17:30N 29°36' W 094°23'2 3.7
2018-Feb-22 17:00N 29°37' W 094°21'0 0.3
2018-Feb-22 16:29N 29°37' W 094°21'1 1.6
2018-Feb-22 16:00N 29°37' W 094°20'1 1.6
2018-Feb-22 15:29N 29°37' W 094°20'0 0.5
2018-Feb-22 15:00N 29°38' W 094°19'0 0.6
2018-Feb-22 14:30N 29°38' W 094°19'0 0.1
2018-Feb-22 14:00N 29°38' W 094°19'0 0.1
2018-Feb-22 13:23N 29°38' W 094°19'0 0.0
2018-Feb-22 13:00N 29°38' W 094°19'0 0.0
2018-Feb-22 12:30N 29°38' W 094°19'0 0.0
2018-Feb-22 12:00N 29°38' W 094°19'0 0.0
2018-Feb-22 11:30N 29°38' W 094°19'0 0.0
2018-Feb-22 10:59N 29°38' W 094°19'0 0.0
2018-Feb-22 10:30N 29°38' W 094°19'0 0.0
2018-Feb-22 10:00N 29°38' W 094°19'0 0.0
2018-Feb-22 09:30N 29°38' W 094°19'0 0.0
2018-Feb-22 09:00N 29°38' W 094°19'0 0.0
2018-Feb-22 08:30N 29°38' W 094°19'0 0.0
2018-Feb-22 07:59N 29°38' W 094°19'0 0.0
2018-Feb-22 07:30N 29°38' W 094°19'0 0.0
2018-Feb-22 06:59N 29°38' W 094°19'0 0.0
2018-Feb-22 06:30N 29°38' W 094°19'0 0.0
2018-Feb-22 05:57N 29°38' W 094°19'0 0.0
2018-Feb-22 05:30N 29°38' W 094°19'0 0.0
2018-Feb-22 05:00N 29°38' W 094°19'0 0.0
2018-Feb-22 04:30N 29°38' W 094°19'0 0.0
2018-Feb-22 04:00N 29°38' W 094°19'0 0.0
2018-Feb-22 03:28N 29°38' W 094°19'0 0.0
2018-Feb-22 03:00N 29°38' W 094°19'0 0.0
2018-Feb-22 02:30N 29°38' W 094°19'0 0.0
2018-Feb-22 02:00N 29°38' W 094°19'0 0.0
2018-Feb-22 01:30N 29°38' W 094°19'0 0.3
2018-Feb-22 00:59N 29°38' W 094°19'2 5.2
2018-Feb-22 00:30N 29°39' W 094°16'3 6.0
2018-Feb-22 00:00N 29°40' W 094°13'3 5.8
2018-Feb-21 23:30N 29°41' W 094°10'3 5.6
2018-Feb-21 23:00N 29°43' W 094°07'3 6.0
2018-Feb-21 22:30N 29°45' W 094°05'3 6.0
2018-Feb-21 22:01N 29°47' W 094°02'3 5.9
2018-Feb-21 21:30N 29°49' W 093°60'3 5.2
2018-Feb-21 21:00N 29°50' W 093°57'2 4.9
2018-Feb-21 20:30N 29°52' W 093°56'3 6.8
2018-Feb-21 20:00N 29°55' W 093°53'2 4.7
2018-Feb-21 19:30N 29°57' W 093°52'0 0.8
2018-Feb-21 19:00N 29°57' W 093°52'0 0.6
2018-Feb-21 18:31N 29°58' W 093°52'0 0.1
2018-Feb-21 18:00N 29°58' W 093°52'0 0.1
2018-Feb-21 17:30N 29°57' W 093°52'0 0.0
2018-Feb-21 17:00N 29°57' W 093°52'0 0.0
2018-Feb-21 16:30N 29°57' W 093°52'0 0.0
2018-Feb-21 16:00N 29°57' W 093°52'0 0.0
2018-Feb-21 15:28N 29°57' W 093°52'0 0.0
2018-Feb-21 15:00N 29°57' W 093°52'0 0.0
2018-Feb-21 14:30N 29°57' W 093°52'0 0.0
2018-Feb-21 14:00N 29°57' W 093°52'0 0.0
2018-Feb-21 13:30N 29°57' W 093°52'0 0.0
2018-Feb-21 13:00N 29°57' W 093°52'0 0.0
2018-Feb-21 12:31N 29°57' W 093°52'0 0.0
2018-Feb-21 12:00N 29°57' W 093°52'0 0.0
2018-Feb-21 11:31N 29°57' W 093°52'0 0.0
2018-Feb-21 11:00N 29°57' W 093°52'0 0.0
2018-Feb-21 10:30N 29°57' W 093°52'0 0.0
2018-Feb-21 10:00N 29°57' W 093°52'0 0.0
2018-Feb-21 09:28N 29°57' W 093°52'0 0.0
2018-Feb-21 09:00N 29°57' W 093°52'0 0.0
2018-Feb-21 08:30N 29°57' W 093°52'0 0.0
2018-Feb-21 08:00N 29°57' W 093°52'0 0.0
2018-Feb-21 07:30N 29°57' W 093°52'0 0.0
2018-Feb-21 07:00N 29°57' W 093°52'0 0.0
2018-Feb-21 06:30N 29°57' W 093°52'0 0.0
2018-Feb-21 06:01N 29°57' W 093°52'0 0.0
2018-Feb-21 05:31N 29°57' W 093°52'0 0.0
2018-Feb-21 05:01N 29°57' W 093°52'0 0.1
2018-Feb-21 04:31N 29°57' W 093°52'0 0.0
2018-Feb-21 04:01N 29°57' W 093°52'1 1.4
2018-Feb-21 03:30N 29°58' W 093°52'0 0.1
2018-Feb-21 02:59N 29°58' W 093°52'0 0.0
2018-Feb-21 02:31N 29°58' W 093°52'0 0.0
2018-Feb-21 02:01N 29°58' W 093°52'0 0.0
2018-Feb-21 01:30N 29°58' W 093°52'0 0.0
2018-Feb-21 01:01N 29°58' W 093°52'0 0.0
2018-Feb-21 00:31N 29°58' W 093°52'0 0.0
2018-Feb-21 00:00N 29°58' W 093°52'0 0.0
2018-Feb-20 23:30N 29°58' W 093°52'1 2.1
2018-Feb-20 23:00N 29°57' W 093°52'0 0.8
2018-Feb-20 22:30N 29°57' W 093°52'0 0.0
2018-Feb-20 22:00N 29°57' W 093°52'0 0.0
2018-Feb-20 21:29N 29°57' W 093°52'0 0.0
2018-Feb-20 21:00N 29°57' W 093°52'0 0.0
2018-Feb-20 20:30N 29°57' W 093°52'0 0.0
2018-Feb-20 20:00N 29°57' W 093°52'0 0.0
2018-Feb-20 19:30N 29°57' W 093°52'0 0.8
2018-Feb-20 19:01N 29°58' W 093°52'0 0.7
2018-Feb-20 18:30N 29°57' W 093°52'0 0.0
2018-Feb-20 18:00N 29°57' W 093°52'0 0.0
2018-Feb-20 17:30N 29°57' W 093°52'0 0.1
2018-Feb-20 17:00N 29°57' W 093°52'0 0.0
2018-Feb-20 16:31N 29°57' W 093°52'0 0.0
2018-Feb-20 16:01N 29°57' W 093°52'0 0.0
2018-Feb-20 15:31N 29°57' W 093°52'0 0.0
2018-Feb-20 15:00N 29°57' W 093°52'0 0.0
2018-Feb-20 14:30N 29°57' W 093°52'0 0.0
2018-Feb-20 14:00N 29°57' W 093°52'0 0.0
2018-Feb-20 13:31N 29°57' W 093°52'0 0.0
2018-Feb-20 13:00N 29°57' W 093°52'0 0.0
2018-Feb-20 12:31N 29°57' W 093°52'0 0.0
2018-Feb-20 12:00N 29°57' W 093°52'0 0.0
2018-Feb-20 11:30N 29°57' W 093°52'0 0.0
2018-Feb-20 11:01N 29°57' W 093°52'0 0.0
2018-Feb-20 10:30N 29°57' W 093°52'0 0.0
2018-Feb-20 10:00N 29°57' W 093°52'0 0.0
2018-Feb-20 09:30N 29°57' W 093°52'0 0.0
2018-Feb-20 09:01N 29°57' W 093°52'0 0.0
2018-Feb-20 08:30N 29°57' W 093°52'0 0.1
2018-Feb-20 08:01N 29°57' W 093°52'0 0.0
2018-Feb-20 07:30N 29°57' W 093°52'0 0.0
2018-Feb-20 07:00N 29°57' W 093°52'0 0.0
2018-Feb-20 06:30N 29°57' W 093°52'0 0.0
2018-Feb-20 06:01N 29°57' W 093°52'0 0.0
2018-Feb-20 05:29N 29°57' W 093°52'0 0.0
2018-Feb-20 05:00N 29°57' W 093°52'0 0.0
2018-Feb-20 04:30N 29°57' W 093°52'0 0.0
2018-Feb-20 04:00N 29°57' W 093°52'0 0.0
2018-Feb-20 03:30N 29°57' W 093°52'0 0.0
2018-Feb-20 03:00N 29°57' W 093°52'0 0.0
2018-Feb-20 02:31N 29°57' W 093°52'0 0.0
2018-Feb-20 02:00N 29°57' W 093°52'0 0.4
2018-Feb-20 01:30N 29°57' W 093°52'0 0.6
2018-Feb-20 01:00N 29°57' W 093°52'0 0.3
2018-Feb-20 00:30N 29°57' W 093°52'2 4.4
2018-Feb-20 00:00N 29°59' W 093°53'0 0.3
2018-Feb-19 23:29N 29°59' W 093°53'0 0.0
2018-Feb-19 23:00N 29°59' W 093°53'0 0.0
2018-Feb-19 22:30N 29°59' W 093°53'0 0.0
2018-Feb-19 22:00N 29°59' W 093°53'0 0.0
2018-Feb-19 21:30N 29°59' W 093°53'0 0.2
2018-Feb-19 21:00N 29°59' W 093°53'0 0.0
2018-Feb-19 20:25N 29°59' W 093°53'0 0.0
2018-Feb-19 19:43N 29°59' W 093°53'0 0.0
2018-Feb-19 19:28N 29°59' W 093°53'0 0.0
2018-Feb-19 18:52N 29°59' W 093°53'0 0.0
2018-Feb-19 18:30N 29°59' W 093°53'0 0.0
2018-Feb-19 18:00N 29°59' W 093°53'0 0.0
2018-Feb-19 17:30N 29°59' W 093°53'0 0.0
2018-Feb-19 16:59N 29°59' W 093°53'0 0.0
2018-Feb-19 16:30N 29°59' W 093°53'0 0.0
2018-Feb-19 15:58N 29°59' W 093°53'0 0.0
2018-Feb-19 15:29N 29°59' W 093°53'0 0.0
2018-Feb-19 15:00N 29°59' W 093°53'0 0.0
2018-Feb-19 14:30N 29°59' W 093°53'0 0.0
2018-Feb-19 14:00N 29°59' W 093°53'0 0.0
2018-Feb-19 13:29N 29°59' W 093°53'0 0.0
2018-Feb-19 13:00N 29°59' W 093°53'0 0.0
2018-Feb-19 12:31N 29°59' W 093°53'0 0.0
2018-Feb-19 12:00N 29°59' W 093°53'0 0.0
2018-Feb-19 11:29N 29°59' W 093°53'0 0.0
2018-Feb-19 11:00N 29°59' W 093°53'0 0.0
2018-Feb-19 10:29N 29°59' W 093°53'0 0.0
2018-Feb-19 10:01N 29°59' W 093°53'0 0.0
2018-Feb-19 09:30N 29°59' W 093°53'0 0.0
2018-Feb-19 09:00N 29°59' W 093°53'0 0.0
2018-Feb-19 08:30N 29°59' W 093°53'0 0.0
2018-Feb-19 08:00N 29°59' W 093°53'0 0.0
2018-Feb-19 07:26N 29°59' W 093°53'0 0.0
2018-Feb-19 07:00N 29°59' W 093°53'0 0.0
2018-Feb-19 06:30N 29°59' W 093°53'0 0.0
2018-Feb-19 05:57N 29°59' W 093°53'0 0.0
2018-Feb-19 05:30N 29°59' W 093°53'0 0.0
2018-Feb-19 05:00N 29°59' W 093°53'0 0.0
2018-Feb-19 04:30N 29°59' W 093°53'0 0.0
2018-Feb-19 04:00N 29°59' W 093°53'0 0.0
2018-Feb-19 03:27N 29°59' W 093°53'0 0.0
2018-Feb-19 03:00N 29°59' W 093°53'0 0.0
2018-Feb-19 02:28N 29°59' W 093°53'0 0.0
2018-Feb-19 01:59N 29°59' W 093°53'0 0.0
2018-Feb-19 01:29N 29°59' W 093°53'0 0.0
2018-Feb-19 01:00N 29°59' W 093°53'0 0.0
2018-Feb-19 00:30N 29°59' W 093°53'0 0.0
2018-Feb-19 00:00N 29°59' W 093°53'0 0.0
2018-Feb-18 23:30N 29°59' W 093°53'0 0.0
2018-Feb-18 22:59N 29°59' W 093°53'0 0.0
2018-Feb-18 22:30N 29°59' W 093°53'0 0.0
2018-Feb-18 22:00N 29°59' W 093°53'0 0.0
2018-Feb-18 21:30N 29°59' W 093°53'0 0.0
2018-Feb-18 20:57N 29°59' W 093°53'0 0.0
2018-Feb-18 20:30N 29°59' W 093°53'0 0.0
2018-Feb-18 19:59N 29°59' W 093°53'0 0.0
2018-Feb-18 19:29N 29°59' W 093°53'0 0.0
2018-Feb-18 19:01N 29°59' W 093°53'0 0.0
2018-Feb-18 18:31N 29°59' W 093°53'0 0.0
2018-Feb-18 18:00N 29°59' W 093°53'0 0.0
2018-Feb-18 17:28N 29°59' W 093°53'0 0.0
2018-Feb-18 16:54N 29°59' W 093°53'0 0.0
2018-Feb-18 16:30N 29°59' W 093°53'0 0.0
2018-Feb-18 16:01N 29°59' W 093°53'0 0.0
2018-Feb-18 15:27N 29°59' W 093°53'0 0.0
2018-Feb-18 15:00N 29°59' W 093°53'0 0.0
2018-Feb-18 14:27N 29°59' W 093°53'0 0.0
2018-Feb-18 14:01N 29°59' W 093°53'0 0.0
2018-Feb-18 13:23N 29°59' W 093°53'0 0.0
2018-Feb-18 13:01N 29°59' W 093°53'0 0.0
2018-Feb-18 12:30N 29°59' W 093°53'0 0.0
2018-Feb-18 11:59N 29°59' W 093°53'0 0.0
2018-Feb-18 11:29N 29°59' W 093°53'0 0.0
2018-Feb-18 10:57N 29°59' W 093°53'0 0.0
2018-Feb-18 10:30N 29°59' W 093°53'0 0.0
2018-Feb-18 10:00N 29°59' W 093°53'0 0.0
2018-Feb-18 09:30N 29°59' W 093°53'0 0.0
2018-Feb-18 09:00N 29°59' W 093°53'0 0.0
2018-Feb-18 08:30N 29°59' W 093°53'0 0.0
2018-Feb-18 08:00N 29°59' W 093°53'0 0.0
2018-Feb-18 07:28N 29°59' W 093°53'0 0.0
2018-Feb-18 07:00N 29°59' W 093°53'0 0.0
2018-Feb-18 06:30N 29°59' W 093°53'0 0.0
2018-Feb-18 05:57N 29°59' W 093°53'0 0.0
2018-Feb-18 05:30N 29°59' W 093°53'0 0.0
2018-Feb-18 05:00N 29°59' W 093°53'0 0.0
2018-Feb-18 04:29N 29°59' W 093°53'0 0.0
2018-Feb-18 03:59N 29°59' W 093°53'0 0.0
2018-Feb-18 03:29N 29°59' W 093°53'0 0.0
2018-Feb-18 02:58N 29°59' W 093°53'0 0.0
2018-Feb-18 02:31N 29°59' W 093°53'0 0.0
2018-Feb-18 02:00N 29°59' W 093°53'2 3.6
2018-Feb-18 01:30N 29°57' W 093°52'5 9.3
2018-Feb-18 01:00N 29°54' W 093°55'4 8.4
2018-Feb-18 00:30N 29°50' W 093°57'3 5.8
2018-Feb-18 00:01N 29°48' W 093°60'3 6.5
2018-Feb-17 23:30N 29°46' W 094°03'3 6.1
2018-Feb-17 23:00N 29°44' W 094°05'3 6.3
2018-Feb-17 22:31N 29°42' W 094°08'2 4.0
2018-Feb-17 22:00N 29°41' W 094°10'2 3.9
2018-Feb-17 21:30N 29°41' W 094°12'2 3.7
2018-Feb-17 21:01N 29°40' W 094°14'2 4.3
2018-Feb-17 20:30N 29°39' W 094°16'2 4.2
2018-Feb-17 20:00N 29°38' W 094°19'2 3.4
2018-Feb-17 19:30N 29°37' W 094°20'2 3.7
2018-Feb-17 19:00N 29°36' W 094°22'2 3.5
2018-Feb-17 18:17N 29°35' W 094°25'2 3.1
2018-Feb-17 17:37N 29°34' W 094°27'9 1.1
2018-Feb-17 08:49N 29°29' W 094°36'0 0.0
2018-Feb-17 08:25N 29°29' W 094°36'0 0.0
2018-Feb-17 07:53N 29°29' W 094°36'0 0.0
2018-Feb-17 07:21N 29°29' W 094°36'0 0.0
2018-Feb-17 06:53N 29°29' W 094°36'0 0.0
2018-Feb-17 06:31N 29°29' W 094°36'0 0.0
2018-Feb-17 06:00N 29°29' W 094°36'0 0.0
2018-Feb-17 05:30N 29°29' W 094°36'0 0.0
2018-Feb-17 05:00N 29°29' W 094°36'0 0.0
2018-Feb-17 04:30N 29°29' W 094°36'0 0.0
2018-Feb-17 03:56N 29°29' W 094°36'0 0.0
2018-Feb-17 03:30N 29°29' W 094°36'0 0.0
2018-Feb-17 02:56N 29°29' W 094°36'0 0.0
2018-Feb-17 02:30N 29°29' W 094°36'0 0.0
2018-Feb-17 02:00N 29°29' W 094°36'0 0.0
2018-Feb-17 01:30N 29°29' W 094°36'0 0.0
2018-Feb-17 00:55N 29°29' W 094°36'0 0.0
2018-Feb-17 00:30N 29°29' W 094°36'0 0.0
2018-Feb-17 00:00N 29°29' W 094°36'0 0.0
2018-Feb-16 23:30N 29°29' W 094°36'13 3.3
2018-Feb-16 19:37N 29°27' W 094°50'210.0
2018-Feb-16 19:27N 29°28' W 094°51'4 9.8
2018-Feb-16 19:00N 29°32' W 094°54'5 9.4
2018-Feb-16 18:30N 29°36' W 094°57'5 9.6
2018-Feb-16 18:00N 29°40' W 094°59'4 8.9
2018-Feb-16 17:30N 29°44' W 095°02'4 7.2
2018-Feb-16 17:00N 29°45' W 095°06'3 0.4
2018-Feb-16 10:56N 29°44' W 095°08'0 0.0
2018-Feb-16 10:04N 29°44' W 095°08'0 0.0
2018-Feb-16 09:53N 29°44' W 095°08'0 0.0
2018-Feb-16 09:31N 29°44' W 095°08'0 0.0
2018-Feb-16 08:59N 29°44' W 095°08'0 0.0
2018-Feb-16 08:28N 29°44' W 095°08'0 0.0
2018-Feb-16 07:59N 29°44' W 095°08'0 0.0
2018-Feb-16 07:30N 29°44' W 095°08'0 0.0
2018-Feb-16 06:59N 29°44' W 095°08'0 0.0
2018-Feb-16 06:28N 29°44' W 095°08'0 0.0
2018-Feb-16 05:59N 29°44' W 095°08'0 0.0
2018-Feb-16 05:29N 29°44' W 095°08'0 0.0
2018-Feb-16 05:00N 29°44' W 095°08'0 0.0
2018-Feb-16 04:30N 29°44' W 095°08'0 0.0
2018-Feb-16 04:00N 29°44' W 095°08'0 0.0
2018-Feb-16 03:30N 29°44' W 095°08'0 0.0
2018-Feb-16 02:58N 29°44' W 095°08'0 0.0
2018-Feb-16 02:27N 29°44' W 095°08'0 0.0
2018-Feb-16 01:54N 29°44' W 095°08'0 0.0
2018-Feb-16 01:28N 29°44' W 095°08'0 0.0
2018-Feb-16 01:00N 29°44' W 095°08'0 0.0
2018-Feb-16 00:25N 29°44' W 095°08'0 0.0
2018-Feb-15 23:59N 29°44' W 095°08'0 0.0
2018-Feb-15 16:56N 29°44' W 095°08'0 0.0
2018-Feb-15 16:29N 29°44' W 095°08'0 0.0
2018-Feb-15 13:56N 29°44' W 095°08'5 1.2
2018-Feb-15 09:34N 29°47' W 095°04'0 0.0
2018-Feb-15 09:27N 29°47' W 095°04'0 0.0
2018-Feb-15 08:55N 29°47' W 095°04'0 0.5
2018-Feb-15 08:28N 29°47' W 095°04'0 0.5
2018-Feb-15 08:00N 29°47' W 095°04'0 0.6
2018-Feb-15 07:26N 29°47' W 095°04'0 0.1
2018-Feb-15 06:54N 29°47' W 095°04'0 0.0
2018-Feb-15 06:20N 29°47' W 095°04'0 0.0
2018-Feb-15 06:00N 29°47' W 095°04'0 0.0
2018-Feb-15 05:27N 29°47' W 095°04'0 0.0
2018-Feb-15 05:00N 29°47' W 095°04'0 0.0
2018-Feb-15 04:21N 29°47' W 095°04'0 0.0
2018-Feb-14 17:05N 29°47' W 095°04'  
Track history (hours):
 
Tides and Currents Weather Stations Pressure Air Temp Water Temp Dewpoint Dewpoint Depression Visibility Wind Speed Wind Dir Waves Ship Positions

Evelyn James

Owner: NGL Marine, LLC, Deer Park, TX. More information available from US FCC via Universal Licensing System and Coast Guard Vessel Documentation Center.

Last reported at 2018-Feb-24 10:57 UTC. Time now 2018-Feb-25 17:49 UTC.
Position N 29°46' W 095°06'.

Length 25 m.

Type: Pilot. MMSI: 367743660.

Date/timePositionNaut miles runAvg speedWind from/ knotsBaromVisibWave heightAir tempDewpointWater temp
2018-Feb-24 10:57N 29°46' W 095°06'0 0.0
2018-Feb-24 10:27N 29°46' W 095°06'0 0.0
2018-Feb-24 09:59N 29°46' W 095°06'0 0.0
2018-Feb-24 09:29N 29°46' W 095°06'0 0.0
2018-Feb-24 09:00N 29°46' W 095°06'0 0.0
2018-Feb-24 08:30N 29°46' W 095°06'0 0.0
2018-Feb-24 08:00N 29°46' W 095°06'0 0.0
2018-Feb-24 07:30N 29°46' W 095°06'0 0.0
2018-Feb-24 07:00N 29°46' W 095°06'0 0.0
2018-Feb-24 06:30N 29°46' W 095°06'0 0.0
2018-Feb-24 06:00N 29°46' W 095°06'0 0.0
2018-Feb-24 05:28N 29°46' W 095°06'0 0.0
2018-Feb-24 05:00N 29°46' W 095°06'0 0.0
2018-Feb-24 04:30N 29°46' W 095°06'0 0.0
2018-Feb-24 04:00N 29°46' W 095°06'0 0.0
2018-Feb-24 03:30N 29°46' W 095°06'0 0.0
2018-Feb-24 02:59N 29°46' W 095°06'0 0.0
2018-Feb-24 02:30N 29°46' W 095°06'0 0.0
2018-Feb-24 01:58N 29°46' W 095°06'0 0.0
2018-Feb-24 01:29N 29°46' W 095°06'0 0.0
2018-Feb-24 00:59N 29°46' W 095°06'0 0.0
2018-Feb-24 00:30N 29°46' W 095°06'2 3.1
2018-Feb-23 23:45N 29°47' W 095°04'0 0.0
2018-Feb-23 23:27N 29°47' W 095°04'0 0.0
2018-Feb-23 22:59N 29°47' W 095°04'0 0.1
2018-Feb-23 22:17N 29°47' W 095°04'1 1.7
2018-Feb-23 21:57N 29°47' W 095°04'2 3.2
2018-Feb-23 21:27N 29°45' W 095°04'2 5.4
2018-Feb-23 20:59N 29°44' W 095°02'3 7.0
2018-Feb-23 20:30N 29°41' W 094°59'4 8.5
2018-Feb-23 20:00N 29°37' W 094°57'4 8.4
2018-Feb-23 19:30N 29°34' W 094°55'4 8.8
2018-Feb-23 19:00N 29°30' W 094°52'6 9.6
2018-Feb-23 18:22N 29°24' W 094°49'4 0.8
2018-Feb-23 12:42N 29°25' W 094°44'0 0.0
2018-Feb-23 09:58N 29°25' W 094°44'0 0.1
2018-Feb-23 09:17N 29°25' W 094°44'0 0.0
2018-Feb-23 08:49N 29°25' W 094°44'0 0.0
2018-Feb-23 08:25N 29°25' W 094°44'0 0.0
2018-Feb-23 07:37N 29°25' W 094°44'0 0.0
2018-Feb-23 07:23N 29°25' W 094°44'0 0.0
2018-Feb-23 06:46N 29°25' W 094°44'0 0.0
2018-Feb-23 06:25N 29°25' W 094°44'0 0.0
2018-Feb-23 05:57N 29°25' W 094°44'0 0.0
2018-Feb-23 03:44N 29°25' W 094°44'0 0.0
2018-Feb-23 03:24N 29°25' W 094°44'17 2.0
2018-Feb-22 18:54N 29°34' W 094°28'1 3.6
2018-Feb-22 18:30N 29°34' W 094°26'2 3.3
2018-Feb-22 17:55N 29°35' W 094°25'1 3.5
2018-Feb-22 17:30N 29°36' W 094°23'2 3.7
2018-Feb-22 17:00N 29°37' W 094°21'0 0.3
2018-Feb-22 16:29N 29°37' W 094°21'1 1.6
2018-Feb-22 16:00N 29°37' W 094°20'1 1.6
2018-Feb-22 15:29N 29°37' W 094°20'0 0.5
2018-Feb-22 15:00N 29°38' W 094°19'0 0.6
2018-Feb-22 14:30N 29°38' W 094°19'0 0.1
2018-Feb-22 14:00N 29°38' W 094°19'0 0.1
2018-Feb-22 13:23N 29°38' W 094°19'0 0.0
2018-Feb-22 13:00N 29°38' W 094°19'0 0.0
2018-Feb-22 12:30N 29°38' W 094°19'0 0.0
2018-Feb-22 12:00N 29°38' W 094°19'0 0.0
2018-Feb-22 11:30N 29°38' W 094°19'0 0.0
2018-Feb-22 10:59N 29°38' W 094°19'0 0.0
2018-Feb-22 10:30N 29°38' W 094°19'0 0.0
2018-Feb-22 10:00N 29°38' W 094°19'0 0.0
2018-Feb-22 09:30N 29°38' W 094°19'0 0.0
2018-Feb-22 09:00N 29°38' W 094°19'0 0.0
2018-Feb-22 08:30N 29°38' W 094°19'0 0.0
2018-Feb-22 07:59N 29°38' W 094°19'0 0.0
2018-Feb-22 07:30N 29°38' W 094°19'0 0.0
2018-Feb-22 06:59N 29°38' W 094°19'0 0.0
2018-Feb-22 06:30N 29°38' W 094°19'0 0.0
2018-Feb-22 05:57N 29°38' W 094°19'0 0.0
2018-Feb-22 05:30N 29°38' W 094°19'0 0.0
2018-Feb-22 05:00N 29°38' W 094°19'0 0.0
2018-Feb-22 04:30N 29°38' W 094°19'0 0.0
2018-Feb-22 04:00N 29°38' W 094°19'0 0.0
2018-Feb-22 03:28N 29°38' W 094°19'0 0.0
2018-Feb-22 03:00N 29°38' W 094°19'0 0.0
2018-Feb-22 02:30N 29°38' W 094°19'0 0.0
2018-Feb-22 02:00N 29°38' W 094°19'0 0.0
2018-Feb-22 01:30N 29°38' W 094°19'0 0.3
2018-Feb-22 00:59N 29°38' W 094°19'2 5.2
2018-Feb-22 00:30N 29°39' W 094°16'3 6.0
2018-Feb-22 00:00N 29°40' W 094°13'3 5.8
2018-Feb-21 23:30N 29°41' W 094°10'3 5.6
2018-Feb-21 23:00N 29°43' W 094°07'3 6.0
2018-Feb-21 22:30N 29°45' W 094°05'3 6.0
2018-Feb-21 22:01N 29°47' W 094°02'3 5.9
2018-Feb-21 21:30N 29°49' W 093°60'3 5.2
2018-Feb-21 21:00N 29°50' W 093°57'2 4.9
2018-Feb-21 20:30N 29°52' W 093°56'3 6.8
2018-Feb-21 20:00N 29°55' W 093°53'2 4.7
2018-Feb-21 19:30N 29°57' W 093°52'0 0.8
2018-Feb-21 19:00N 29°57' W 093°52'0 0.6
2018-Feb-21 18:31N 29°58' W 093°52'0 0.1
2018-Feb-21 18:00N 29°58' W 093°52'0 0.1
2018-Feb-21 17:30N 29°57' W 093°52'0 0.0
2018-Feb-21 17:00N 29°57' W 093°52'0 0.0
2018-Feb-21 16:30N 29°57' W 093°52'0 0.0
2018-Feb-21 16:00N 29°57' W 093°52'0 0.0
2018-Feb-21 15:28N 29°57' W 093°52'0 0.0
2018-Feb-21 15:00N 29°57' W 093°52'0 0.0
2018-Feb-21 14:30N 29°57' W 093°52'0 0.0
2018-Feb-21 14:00N 29°57' W 093°52'0 0.0
2018-Feb-21 13:30N 29°57' W 093°52'0 0.0
2018-Feb-21 13:00N 29°57' W 093°52'0 0.0
2018-Feb-21 12:31N 29°57' W 093°52'0 0.0
2018-Feb-21 12:00N 29°57' W 093°52'0 0.0
2018-Feb-21 11:31N 29°57' W 093°52'0 0.0
2018-Feb-21 11:00N 29°57' W 093°52'0 0.0
2018-Feb-21 10:30N 29°57' W 093°52'0 0.0
2018-Feb-21 10:00N 29°57' W 093°52'0 0.0
2018-Feb-21 09:28N 29°57' W 093°52'0 0.0
2018-Feb-21 09:00N 29°57' W 093°52'0 0.0
2018-Feb-21 08:30N 29°57' W 093°52'0 0.0
2018-Feb-21 08:00N 29°57' W 093°52'0 0.0
2018-Feb-21 07:30N 29°57' W 093°52'0 0.0
2018-Feb-21 07:00N 29°57' W 093°52'0 0.0
2018-Feb-21 06:30N 29°57' W 093°52'0 0.0
2018-Feb-21 06:01N 29°57' W 093°52'0 0.0
2018-Feb-21 05:31N 29°57' W 093°52'0 0.0
2018-Feb-21 05:01N 29°57' W 093°52'0 0.1
2018-Feb-21 04:31N 29°57' W 093°52'0 0.0
2018-Feb-21 04:01N 29°57' W 093°52'1 1.4
2018-Feb-21 03:30N 29°58' W 093°52'0 0.1
2018-Feb-21 02:59N 29°58' W 093°52'0 0.0
2018-Feb-21 02:31N 29°58' W 093°52'0 0.0
2018-Feb-21 02:01N 29°58' W 093°52'0 0.0
2018-Feb-21 01:30N 29°58' W 093°52'0 0.0
2018-Feb-21 01:01N 29°58' W 093°52'0 0.0
2018-Feb-21 00:31N 29°58' W 093°52'0 0.0
2018-Feb-21 00:00N 29°58' W 093°52'0 0.0
2018-Feb-20 23:30N 29°58' W 093°52'1 2.1
2018-Feb-20 23:00N 29°57' W 093°52'0 0.8
2018-Feb-20 22:30N 29°57' W 093°52'0 0.0
2018-Feb-20 22:00N 29°57' W 093°52'0 0.0
2018-Feb-20 21:29N 29°57' W 093°52'0 0.0
2018-Feb-20 21:00N 29°57' W 093°52'0 0.0
2018-Feb-20 20:30N 29°57' W 093°52'0 0.0
2018-Feb-20 20:00N 29°57' W 093°52'0 0.0
2018-Feb-20 19:30N 29°57' W 093°52'0 0.8
2018-Feb-20 19:01N 29°58' W 093°52'0 0.7
2018-Feb-20 18:30N 29°57' W 093°52'0 0.0
2018-Feb-20 18:00N 29°57' W 093°52'0 0.0
2018-Feb-20 17:30N 29°57' W 093°52'0 0.1
2018-Feb-20 17:00N 29°57' W 093°52'0 0.0
2018-Feb-20 16:31N 29°57' W 093°52'0 0.0
2018-Feb-20 16:01N 29°57' W 093°52'0 0.0
2018-Feb-20 15:31N 29°57' W 093°52'0 0.0
2018-Feb-20 15:00N 29°57' W 093°52'0 0.0
2018-Feb-20 14:30N 29°57' W 093°52'0 0.0
2018-Feb-20 14:00N 29°57' W 093°52'0 0.0
2018-Feb-20 13:31N 29°57' W 093°52'0 0.0
2018-Feb-20 13:00N 29°57' W 093°52'0 0.0
2018-Feb-20 12:31N 29°57' W 093°52'0 0.0
2018-Feb-20 12:00N 29°57' W 093°52'0 0.0
2018-Feb-20 11:30N 29°57' W 093°52'0 0.0
2018-Feb-20 11:01N 29°57' W 093°52'0 0.0
2018-Feb-20 10:30N 29°57' W 093°52'0 0.0
2018-Feb-20 10:00N 29°57' W 093°52'0 0.0
2018-Feb-20 09:30N 29°57' W 093°52'0 0.0
2018-Feb-20 09:01N 29°57' W 093°52'0 0.0
2018-Feb-20 08:30N 29°57' W 093°52'0 0.1
2018-Feb-20 08:01N 29°57' W 093°52'0 0.0
2018-Feb-20 07:30N 29°57' W 093°52'0 0.0
2018-Feb-20 07:00N 29°57' W 093°52'0 0.0
2018-Feb-20 06:30N 29°57' W 093°52'0 0.0
2018-Feb-20 06:01N 29°57' W 093°52'0 0.0
2018-Feb-20 05:29N 29°57' W 093°52'0 0.0
2018-Feb-20 05:00N 29°57' W 093°52'0 0.0
2018-Feb-20 04:30N 29°57' W 093°52'0 0.0
2018-Feb-20 04:00N 29°57' W 093°52'0 0.0
2018-Feb-20 03:30N 29°57' W 093°52'0 0.0
2018-Feb-20 03:00N 29°57' W 093°52'0 0.0
2018-Feb-20 02:31N 29°57' W 093°52'0 0.0
2018-Feb-20 02:00N 29°57' W 093°52'0 0.4
2018-Feb-20 01:30N 29°57' W 093°52'0 0.6
2018-Feb-20 01:00N 29°57' W 093°52'0 0.3
2018-Feb-20 00:30N 29°57' W 093°52'2 4.4
2018-Feb-20 00:00N 29°59' W 093°53'0 0.3
2018-Feb-19 23:29N 29°59' W 093°53'0 0.0
2018-Feb-19 23:00N 29°59' W 093°53'0 0.0
2018-Feb-19 22:30N 29°59' W 093°53'0 0.0
2018-Feb-19 22:00N 29°59' W 093°53'0 0.0
2018-Feb-19 21:30N 29°59' W 093°53'0 0.2
2018-Feb-19 21:00N 29°59' W 093°53'0 0.0
2018-Feb-19 20:25N 29°59' W 093°53'0 0.0
2018-Feb-19 19:43N 29°59' W 093°53'0 0.0
2018-Feb-19 19:28N 29°59' W 093°53'0 0.0
2018-Feb-19 18:52N 29°59' W 093°53'0 0.0
2018-Feb-19 18:30N 29°59' W 093°53'0 0.0
2018-Feb-19 18:00N 29°59' W 093°53'0 0.0
2018-Feb-19 17:30N 29°59' W 093°53'0 0.0
2018-Feb-19 16:59N 29°59' W 093°53'0 0.0
2018-Feb-19 16:30N 29°59' W 093°53'0 0.0
2018-Feb-19 15:58N 29°59' W 093°53'0 0.0
2018-Feb-19 15:29N 29°59' W 093°53'0 0.0
2018-Feb-19 15:00N 29°59' W 093°53'0 0.0
2018-Feb-19 14:30N 29°59' W 093°53'0 0.0
2018-Feb-19 14:00N 29°59' W 093°53'0 0.0
2018-Feb-19 13:29N 29°59' W 093°53'0 0.0
2018-Feb-19 13:00N 29°59' W 093°53'0 0.0
2018-Feb-19 12:31N 29°59' W 093°53'0 0.0
2018-Feb-19 12:00N 29°59' W 093°53'0 0.0
2018-Feb-19 11:29N 29°59' W 093°53'0 0.0
2018-Feb-19 11:00N 29°59' W 093°53'0 0.0
2018-Feb-19 10:29N 29°59' W 093°53'0 0.0
2018-Feb-19 10:01N 29°59' W 093°53'0 0.0
2018-Feb-19 09:30N 29°59' W 093°53'0 0.0
2018-Feb-19 09:00N 29°59' W 093°53'0 0.0
2018-Feb-19 08:30N 29°59' W 093°53'0 0.0
2018-Feb-19 08:00N 29°59' W 093°53'0 0.0
2018-Feb-19 07:26N 29°59' W 093°53'0 0.0
2018-Feb-19 07:00N 29°59' W 093°53'0 0.0
2018-Feb-19 06:30N 29°59' W 093°53'0 0.0
2018-Feb-19 05:57N 29°59' W 093°53'0 0.0
2018-Feb-19 05:30N 29°59' W 093°53'0 0.0
2018-Feb-19 05:00N 29°59' W 093°53'0 0.0
2018-Feb-19 04:30N 29°59' W 093°53'0 0.0
2018-Feb-19 04:00N 29°59' W 093°53'0 0.0
2018-Feb-19 03:27N 29°59' W 093°53'0 0.0
2018-Feb-19 03:00N 29°59' W 093°53'0 0.0
2018-Feb-19 02:28N 29°59' W 093°53'0 0.0
2018-Feb-19 01:59N 29°59' W 093°53'0 0.0
2018-Feb-19 01:29N 29°59' W 093°53'0 0.0
2018-Feb-19 01:00N 29°59' W 093°53'0 0.0
2018-Feb-19 00:30N 29°59' W 093°53'0 0.0
2018-Feb-19 00:00N 29°59' W 093°53'0 0.0
2018-Feb-18 23:30N 29°59' W 093°53'0 0.0
2018-Feb-18 22:59N 29°59' W 093°53'0 0.0
2018-Feb-18 22:30N 29°59' W 093°53'0 0.0
2018-Feb-18 22:00N 29°59' W 093°53'0 0.0
2018-Feb-18 21:30N 29°59' W 093°53'0 0.0
2018-Feb-18 20:57N 29°59' W 093°53'0 0.0
2018-Feb-18 20:30N 29°59' W 093°53'0 0.0
2018-Feb-18 19:59N 29°59' W 093°53'0 0.0
2018-Feb-18 19:29N 29°59' W 093°53'0 0.0
2018-Feb-18 19:01N 29°59' W 093°53'0 0.0
2018-Feb-18 18:31N 29°59' W 093°53'0 0.0
2018-Feb-18 18:00N 29°59' W 093°53'0 0.0
2018-Feb-18 17:28N 29°59' W 093°53'0 0.0
2018-Feb-18 16:54N 29°59' W 093°53'0 0.0
2018-Feb-18 16:30N 29°59' W 093°53'0 0.0
2018-Feb-18 16:01N 29°59' W 093°53'0 0.0
2018-Feb-18 15:27N 29°59' W 093°53'0 0.0
2018-Feb-18 15:00N 29°59' W 093°53'0 0.0
2018-Feb-18 14:27N 29°59' W 093°53'0 0.0
2018-Feb-18 14:01N 29°59' W 093°53'0 0.0
2018-Feb-18 13:23N 29°59' W 093°53'0 0.0
2018-Feb-18 13:01N 29°59' W 093°53'0 0.0
2018-Feb-18 12:30N 29°59' W 093°53'0 0.0
2018-Feb-18 11:59N 29°59' W 093°53'0 0.0
2018-Feb-18 11:29N 29°59' W 093°53'0 0.0
2018-Feb-18 10:57N 29°59' W 093°53'0 0.0
2018-Feb-18 10:30N 29°59' W 093°53'0 0.0
2018-Feb-18 10:00N 29°59' W 093°53'0 0.0
2018-Feb-18 09:30N 29°59' W 093°53'0 0.0
2018-Feb-18 09:00N 29°59' W 093°53'0 0.0
2018-Feb-18 08:30N 29°59' W 093°53'0 0.0
2018-Feb-18 08:00N 29°59' W 093°53'0 0.0
2018-Feb-18 07:28N 29°59' W 093°53'0 0.0
2018-Feb-18 07:00N 29°59' W 093°53'0 0.0
2018-Feb-18 06:30N 29°59' W 093°53'0 0.0
2018-Feb-18 05:57N 29°59' W 093°53'0 0.0
2018-Feb-18 05:30N 29°59' W 093°53'0 0.0
2018-Feb-18 05:00N 29°59' W 093°53'0 0.0
2018-Feb-18 04:29N 29°59' W 093°53'0 0.0
2018-Feb-18 03:59N 29°59' W 093°53'0 0.0
2018-Feb-18 03:29N 29°59' W 093°53'0 0.0
2018-Feb-18 02:58N 29°59' W 093°53'0 0.0
2018-Feb-18 02:31N 29°59' W 093°53'0 0.0
2018-Feb-18 02:00N 29°59' W 093°53'2 3.6
2018-Feb-18 01:30N 29°57' W 093°52'5 9.3
2018-Feb-18 01:00N 29°54' W 093°55'4 8.4
2018-Feb-18 00:30N 29°50' W 093°57'3 5.8
2018-Feb-18 00:01N 29°48' W 093°60'3 6.5
2018-Feb-17 23:30N 29°46' W 094°03'3 6.1
2018-Feb-17 23:00N 29°44' W 094°05'3 6.3
2018-Feb-17 22:31N 29°42' W 094°08'2 4.0
2018-Feb-17 22:00N 29°41' W 094°10'2 3.9
2018-Feb-17 21:30N 29°41' W 094°12'2 3.7
2018-Feb-17 21:01N 29°40' W 094°14'2 4.3
2018-Feb-17 20:30N 29°39' W 094°16'2 4.2
2018-Feb-17 20:00N 29°38' W 094°19'2 3.4
2018-Feb-17 19:30N 29°37' W 094°20'2 3.7
2018-Feb-17 19:00N 29°36' W 094°22'2 3.5
2018-Feb-17 18:17N 29°35' W 094°25'2 3.1
2018-Feb-17 17:37N 29°34' W 094°27'9 1.1
2018-Feb-17 08:49N 29°29' W 094°36'0 0.0
2018-Feb-17 08:25N 29°29' W 094°36'0 0.0
2018-Feb-17 07:53N 29°29' W 094°36'0 0.0
2018-Feb-17 07:21N 29°29' W 094°36'0 0.0
2018-Feb-17 06:53N 29°29' W 094°36'0 0.0
2018-Feb-17 06:31N 29°29' W 094°36'0 0.0
2018-Feb-17 06:00N 29°29' W 094°36'0 0.0
2018-Feb-17 05:30N 29°29' W 094°36'0 0.0
2018-Feb-17 05:00N 29°29' W 094°36'0 0.0
2018-Feb-17 04:30N 29°29' W 094°36'0 0.0
2018-Feb-17 03:56N 29°29' W 094°36'0 0.0
2018-Feb-17 03:30N 29°29' W 094°36'0 0.0
2018-Feb-17 02:56N 29°29' W 094°36'0 0.0
2018-Feb-17 02:30N 29°29' W 094°36'0 0.0
2018-Feb-17 02:00N 29°29' W 094°36'0 0.0
2018-Feb-17 01:30N 29°29' W 094°36'0 0.0
2018-Feb-17 00:55N 29°29' W 094°36'0 0.0
2018-Feb-17 00:30N 29°29' W 094°36'0 0.0
2018-Feb-17 00:00N 29°29' W 094°36'0 0.0
2018-Feb-16 23:30N 29°29' W 094°36'13 3.3
2018-Feb-16 19:37N 29°27' W 094°50'210.0
2018-Feb-16 19:27N 29°28' W 094°51'4 9.8
2018-Feb-16 19:00N 29°32' W 094°54'5 9.4
2018-Feb-16 18:30N 29°36' W 094°57'5 9.6
2018-Feb-16 18:00N 29°40' W 094°59'4 8.9
2018-Feb-16 17:30N 29°44' W 095°02'4 7.2
2018-Feb-16 17:00N 29°45' W 095°06'3 0.4
2018-Feb-16 10:56N 29°44' W 095°08'0 0.0
2018-Feb-16 10:04N 29°44' W 095°08'0 0.0
2018-Feb-16 09:53N 29°44' W 095°08'0 0.0
2018-Feb-16 09:31N 29°44' W 095°08'0 0.0
2018-Feb-16 08:59N 29°44' W 095°08'0 0.0
2018-Feb-16 08:28N 29°44' W 095°08'0 0.0
2018-Feb-16 07:59N 29°44' W 095°08'0 0.0
2018-Feb-16 07:30N 29°44' W 095°08'0 0.0
2018-Feb-16 06:59N 29°44' W 095°08'0 0.0
2018-Feb-16 06:28N 29°44' W 095°08'0 0.0
2018-Feb-16 05:59N 29°44' W 095°08'0 0.0
2018-Feb-16 05:29N 29°44' W 095°08'0 0.0
2018-Feb-16 05:00N 29°44' W 095°08'0 0.0
2018-Feb-16 04:30N 29°44' W 095°08'0 0.0
2018-Feb-16 04:00N 29°44' W 095°08'0 0.0
2018-Feb-16 03:30N 29°44' W 095°08'0 0.0
2018-Feb-16 02:58N 29°44' W 095°08'0 0.0
2018-Feb-16 02:27N 29°44' W 095°08'0 0.0
2018-Feb-16 01:54N 29°44' W 095°08'0 0.0
2018-Feb-16 01:28N 29°44' W 095°08'0 0.0
2018-Feb-16 01:00N 29°44' W 095°08'0 0.0
2018-Feb-16 00:25N 29°44' W 095°08'0 0.0
2018-Feb-15 23:59N 29°44' W 095°08'0 0.0
2018-Feb-15 16:56N 29°44' W 095°08'0 0.0
2018-Feb-15 16:29N 29°44' W 095°08'0 0.0
2018-Feb-15 13:56N 29°44' W 095°08'5 1.2
2018-Feb-15 09:34N 29°47' W 095°04'0 0.0
2018-Feb-15 09:27N 29°47' W 095°04'0 0.0
2018-Feb-15 08:55N 29°47' W 095°04'0 0.5
2018-Feb-15 08:28N 29°47' W 095°04'0 0.5
2018-Feb-15 08:00N 29°47' W 095°04'0 0.6
2018-Feb-15 07:26N 29°47' W 095°04'0 0.1
2018-Feb-15 06:54N 29°47' W 095°04'0 0.0
2018-Feb-15 06:20N 29°47' W 095°04'0 0.0
2018-Feb-15 06:00N 29°47' W 095°04'0 0.0
2018-Feb-15 05:27N 29°47' W 095°04'0 0.0
2018-Feb-15 05:00N 29°47' W 095°04'0 0.0
2018-Feb-15 04:21N 29°47' W 095°04'0 0.0
2018-Feb-14 17:05N 29°47' W 095°04'  

Dump ship's entire track history